XBR weather

Brockville - Thousand Islands Regional Tackaberry Airport
Brockville, Ontario, Canada

Public forecast

Using degrees Celsius for public forecast. Weather courtesy of forecast.io.

Closest aviation weather report (METAR) to Brockville - Thousand Islands Regional Tackaberry Airport

Closest report is Wheeler Sack Army Air Field, 35.1 nm (65.0 km) S. Retrieved 2020/07/04 04:56 UTC (21 minutes ago):

KGTB 040456Z AUTO 18003KT 10SM CLR 19/18 A2992 RMK AO2 SLP128 T01910179 402940190

Closest aviation forecast (TAF) to Brockville - Thousand Islands Regional Tackaberry Airport

Forecast is more than 12 hours old.

Closest forecast is Wheeler Sack Army Air Field, 35.1 nm (65.0 km) S. Retrieved 2020-07-03 01:28 UTC (1 day ago):

TAF KGTB 030100Z 0301/0407 35006KT 9000 -SHRA BKN030 OVC050 QNH2980INS BECMG 0303/0304 VRB06KT 6000 BR SCT010 BKN015 QNH2984INS BECMG 0315/0316 35010G15KT 9000 -SHRA BKN040 OVC060 QNH2988INS BECMG 0317/0318 03012KT 9999 NSW SCT040 QNH2987INS BECMG 0406/0407 VRB06KT 9999 FEW050 QNH2994INS TX26/0320Z TN20/0310Z LAST NO AMDS AFT 0301 NEXT 0704